Time;durP1;ratioP1;P1;durP2;ratioP2;P2;SDS_P1;SDS_P2;PMS_P1;PMS_P2;Temp;Humidity;BMP_temperature;BMP_pressure;BME280_temperature;BME280_humidity;BME280_pressure;Samples;Min_cycle;Max_cycle;Signal;HPM_P1;HPM_P2
2023/03/13 00:01:45;;;;;;;;;;;;;;;;;;5112966;28;1158;-70
2023/03/13 00:04:10;;;;;;;;;;;;;;;;;;5112601;28;1110;-70
2023/03/13 00:06:36;;;;;;;;;;;;;;;;;;5112699;28;1949;-70
2023/03/13 00:09:04;;;;;;;;;;;;;;;;;;5112986;28;1347;-70
2023/03/13 00:11:29;;;;;;;;;;;;;;;;;;5114045;28;844;-70
2023/03/13 00:13:55;;;;;;;;;;;;;;;;;;5112710;28;1336;-70
2023/03/13 00:16:20;;;;;;;;;;;;;;;;;;5112292;28;1158;-70
2023/03/13 00:18:46;;;;;;;;;;;;;;;;;;5113114;28;1257;-70
2023/03/13 00:21:13;;;;;;;;;;;;;;;;;;5114452;28;832;-71
2023/03/13 00:23:38;;;;;;;;;;;;;;;;;;5112873;28;1135;-71
2023/03/13 00:26:05;;;;;;;;;;;;;;;;;;5112986;28;916;-71
2023/03/13 00:28:31;;;;;;;;;;;;;;;;;;5112650;28;1300;-70
2023/03/13 00:31:04;;;;;;;;;;;;;;;;;;5112889;28;1251;-71
2023/03/13 00:33:31;;;;;;;;;;;;;;;;;;5112748;28;1400;-71
2023/03/13 00:35:57;;;;;;;;;;;;;;;;;;5112782;28;1248;-71
2023/03/13 00:38:22;;;;;;;;;;;;;;;;;;5112308;28;1134;-71
2023/03/13 00:40:47;;;;;;;;;;;;;;;;;;5113989;28;840;-71
2023/03/13 00:43:12;;;;;;;;;;;;;;;;;;5113876;28;911;-71
2023/03/13 00:45:38;;;;;;;;;;;;;;;;;;5111707;28;1165;-71
2023/03/13 00:48:03;;;;;;;;;;;;;;;;;;5113526;28;1961;-71
2023/03/13 00:50:28;;;;;;;;;;;;;;;;;;5112977;28;824;-71
2023/03/13 00:52:53;;;;;;;;;;;;;;;;;;5112129;28;974;-71
2023/03/13 00:55:19;;;;;;;;;;;;;;;;;;5111933;28;1226;-71
2023/03/13 00:57:44;;;;;;;;;;;;;;;;;;5111618;28;1406;-71
2023/03/13 01:00:10;;;;;;;;;;;;;;;;;;5112785;28;1065;-71
2023/03/13 01:02:39;;;;;;;;;;;;;;;;;;5113497;28;828;-71
2023/03/13 01:05:05;;;;;;;;;;;;;;;;;;5113255;28;899;-71
2023/03/13 01:07:30;;;;;;;;;;;;;;;;;;5112064;28;1963;-71
2023/03/13 01:09:55;;;;;;;;;;;;;;;;;;5112665;28;892;-71
2023/03/13 01:12:20;;;;;;;;;;;;;;;;;;5112330;28;864;-71
2023/03/13 01:14:48;;;;;;;;;;;;;;;;;;5111773;28;935;-71
2023/03/13 01:17:14;;;;;;;;;;;;;;;;;;5112565;28;958;-71
2023/03/13 01:19:39;;;;;;;;;;;;;;;;;;5112844;28;1026;-71
2023/03/13 01:22:04;;;;;;;;;;;;;;;;;;5111809;28;887;-71
2023/03/13 01:24:29;;;;;;;;;;;;;;;;;;5112167;28;1035;-71
2023/03/13 01:26:55;;;;;;;;;;;;;;;;;;5112799;28;1957;-71
2023/03/13 01:29:20;;;;;;;;;;;;;;;;;;5111434;28;903;-71
2023/03/13 01:31:45;;;;;;;;;;;;;;;;;;5112613;28;941;-71
2023/03/13 01:34:10;;;;;;;;;;;;;;;;;;5110573;28;997;-71
2023/03/13 01:36:36;;;;;;;;;;;;;;;;;;5112792;28;974;-70
2023/03/13 01:39:02;;;;;;;;;;;;;;;;;;5094578;28;1186;-70
2023/03/13 01:41:28;;;;;;;;;;;;;;;;;;5112466;28;773;-71
2023/03/13 01:43:56;;;;;;;;;;;;;;;;;;5112816;28;871;-70
2023/03/13 01:46:23;;;;;;;;;;;;;;;;;;5112080;28;1894;-70
2023/03/13 01:48:58;;;;;;;;;;;;;;;;;;5113373;28;828;-70
2023/03/13 01:51:26;;;;;;;;;;;;;;;;;;5113073;28;958;-70
2023/03/13 01:53:56;;;;;;;;;;;;;;;;;;5112927;28;867;-70
2023/03/13 01:56:27;;;;;;;;;;;;;;;;;;5112445;28;927;-70
2023/03/13 01:58:54;;;;;;;;;;;;;;;;;;5113108;28;911;-70
2023/03/13 02:01:19;;;;;;;;;;;;;;;;;;5112422;28;911;-70
2023/03/13 02:03:46;;;;;;;;;;;;;;;;;;5113096;28;815;-70
2023/03/13 02:06:11;;;;;;;;;;;;;;;;;;5112606;28;1910;-70
2023/03/13 02:08:39;;;;;;;;;;;;;;;;;;5093525;28;1233;-70
2023/03/13 02:11:23;;;;;;;;;;;;;;;;;;5112799;28;1053;-70
2023/03/13 02:13:49;;;;;;;;;;;;;;;;;;5112393;28;824;-70
2023/03/13 02:16:14;;;;;;;;;;;;;;;;;;5111073;28;877;-71
2023/03/13 02:18:40;;;;;;;;;;;;;;;;;;5111782;28;844;-70
2023/03/13 02:21:08;;;;;;;;;;;;;;;;;;5112036;28;864;-70
2023/03/13 02:23:37;;;;;;;;;;;;;;;;;;5111896;28;943;-70
2023/03/13 02:26:03;;;;;;;;;;;;;;;;;;5110851;28;1288;-71
2023/03/13 02:28:33;;;;;;;;;;;;;;;;;;5110502;28;1947;-70
2023/03/13 02:30:59;;;;;;;;;;;;;;;;;;5112710;28;857;-70
2023/03/13 02:33:29;;;;;;;;;;;;;;;;;;5111666;28;891;-70
2023/03/13 02:35:54;;;;;;;;;;;;;;;;;;5110417;28;1268;-71
2023/03/13 02:38:22;;;;;;;;;;;;;;;;;;5111692;28;903;-69
2023/03/13 02:40:50;;;;;;;;;;;;;;;;;;5112262;28;829;-70
2023/03/13 02:43:35;;;;;;;;;;;;;;;;;;5112003;28;828;-70
2023/03/13 02:46:06;;;;;;;;;;;;;;;;;;5112652;28;1130;-70
2023/03/13 02:48:33;;;;;;;;;;;;;;;;;;5114176;28;1965;-70
2023/03/13 02:51:00;;;;;;;;;;;;;;;;;;5115668;28;848;-70
2023/03/13 02:53:25;;;;;;;;;;;;;;;;;;5115220;28;867;-71
2023/03/13 02:55:51;;;;;;;;;;;;;;;;;;5097124;28;1254;-70
2023/03/13 02:58:16;;;;;;;;;;;;;;;;;;5114236;28;1260;-70
2023/03/13 03:00:41;;;;;;;;;;;;;;;;;;5114057;28;828;-70
2023/03/13 03:03:07;;;;;;;;;;;;;;;;;;5115799;28;982;-70
2023/03/13 03:05:32;;;;;;;;;;;;;;;;;;5114141;28;1182;-70
2023/03/13 03:07:57;;;;;;;;;;;;;;;;;;5115417;28;1894;-70
2023/03/13 03:10:22;;;;;;;;;;;;;;;;;;5115002;28;919;-70
2023/03/13 03:12:48;;;;;;;;;;;;;;;;;;5116167;28;895;-70
2023/03/13 03:15:13;;;;;;;;;;;;;;;;;;5115673;28;892;-70
2023/03/13 03:17:38;;;;;;;;;;;;;;;;;;5114308;28;927;-70
2023/03/13 03:20:10;;;;;;;;;;;;;;;;;;5114583;28;914;-71
2023/03/13 03:22:37;;;;;;;;;;;;;;;;;;5115460;28;914;-70
2023/03/13 03:25:03;;;;;;;;;;;;;;;;;;5115726;28;933;-70
2023/03/13 03:27:29;;;;;;;;;;;;;;;;;;5115142;28;1914;-70
2023/03/13 03:29:54;;;;;;;;;;;;;;;;;;5114870;28;859;-70
2023/03/13 03:32:20;;;;;;;;;;;;;;;;;;5114617;28;840;-70
2023/03/13 03:34:45;;;;;;;;;;;;;;;;;;5113416;28;949;-70
2023/03/13 03:37:10;;;;;;;;;;;;;;;;;;5113595;28;1292;-70
2023/03/13 03:39:35;;;;;;;;;;;;;;;;;;5113320;28;1125;-70
2023/03/13 03:42:01;;;;;;;;;;;;;;;;;;5115033;28;840;-71
2023/03/13 03:44:26;;;;;;;;;;;;;;;;;;5114654;28;816;-70
2023/03/13 03:46:51;;;;;;;;;;;;;;;;;;5114877;28;1967;-70
2023/03/13 03:49:17;;;;;;;;;;;;;;;;;;5114449;28;903;-70
2023/03/13 03:51:42;;;;;;;;;;;;;;;;;;5114235;28;808;-70
2023/03/13 03:54:07;;;;;;;;;;;;;;;;;;5114431;28;875;-70
2023/03/13 03:56:32;;;;;;;;;;;;;;;;;;5112446;28;1249;-70
2023/03/13 03:58:58;;;;;;;;;;;;;;;;;;5114890;28;864;-70
2023/03/13 04:01:23;;;;;;;;;;;;;;;;;;5112772;28;922;-71
2023/03/13 04:03:48;;;;;;;;;;;;;;;;;;5113038;28;1403;-70
2023/03/13 04:06:14;;;;;;;;;;;;;;;;;;5113053;28;1964;-71
2023/03/13 04:08:39;;;;;;;;;;;;;;;;;;5111904;28;1239;-71
2023/03/13 04:11:04;;;;;;;;;;;;;;;;;;5114314;28;982;-70
2023/03/13 04:13:30;;;;;;;;;;;;;;;;;;5113797;28;1024;-70
2023/03/13 04:15:55;;;;;;;;;;;;;;;;;;5112695;28;1157;-70
2023/03/13 04:18:20;;;;;;;;;;;;;;;;;;5112714;28;892;-70
2023/03/13 04:20:45;;;;;;;;;;;;;;;;;;5112683;28;946;-71
2023/03/13 04:23:11;;;;;;;;;;;;;;;;;;5095789;28;1213;-71
2023/03/13 04:25:37;;;;;;;;;;;;;;;;;;5113960;28;909;-72
2023/03/13 04:28:02;;;;;;;;;;;;;;;;;;5114219;28;1918;-70
2023/03/13 04:30:27;;;;;;;;;;;;;;;;;;5112417;28;1245;-71
2023/03/13 04:32:52;;;;;;;;;;;;;;;;;;5114234;28;942;-70
2023/03/13 04:35:18;;;;;;;;;;;;;;;;;;5095974;28;1162;-70
2023/03/13 04:37:43;;;;;;;;;;;;;;;;;;5113980;28;1046;-70
2023/03/13 04:40:09;;;;;;;;;;;;;;;;;;5113088;28;1157;-70
2023/03/13 04:42:34;;;;;;;;;;;;;;;;;;5112951;28;950;-70
2023/03/13 04:44:59;;;;;;;;;;;;;;;;;;5113035;28;880;-70
2023/03/13 04:47:24;;;;;;;;;;;;;;;;;;5113343;28;1909;-70
2023/03/13 04:49:50;;;;;;;;;;;;;;;;;;5113286;28;884;-71
2023/03/13 04:52:15;;;;;;;;;;;;;;;;;;5112010;28;1185;-70
2023/03/13 04:54:40;;;;;;;;;;;;;;;;;;5112867;28;903;-70
2023/03/13 04:57:05;;;;;;;;;;;;;;;;;;5111924;28;1201;-70
2023/03/13 04:59:31;;;;;;;;;;;;;;;;;;5112115;28;1198;-71
2023/03/13 05:01:56;;;;;;;;;;;;;;;;;;5111478;28;888;-71
2023/03/13 05:04:21;;;;;;;;;;;;;;;;;;5112402;28;1002;-70
2023/03/13 05:06:46;;;;;;;;;;;;;;;;;;5112449;28;1882;-70
2023/03/13 05:09:12;;;;;;;;;;;;;;;;;;5094387;28;1265;-70
2023/03/13 05:11:39;;;;;;;;;;;;;;;;;;5108441;28;1191;-71
2023/03/13 05:14:04;;;;;;;;;;;;;;;;;;5098361;28;1230;-70
2023/03/13 05:16:30;;;;;;;;;;;;;;;;;;5095790;28;1119;-70
2023/03/13 05:18:55;;;;;;;;;;;;;;;;;;5090771;28;1231;-71
2023/03/13 05:21:20;;;;;;;;;;;;;;;;;;5092436;28;887;-70
2023/03/13 05:23:46;;;;;;;;;;;;;;;;;;5090909;28;1012;-70
2023/03/13 05:26:12;;;;;;;;;;;;;;;;;;5091320;28;1027;-71
2023/03/13 05:28:37;;;;;;;;;;;;;;;;;;5092063;28;1915;-70
2023/03/13 05:31:02;;;;;;;;;;;;;;;;;;5091268;28;1233;-70
2023/03/13 05:33:28;;;;;;;;;;;;;;;;;;5091011;28;983;-70
2023/03/13 05:35:53;;;;;;;;;;;;;;;;;;5090818;28;896;-71
2023/03/13 05:38:18;;;;;;;;;;;;;;;;;;5092386;28;865;-71
2023/03/13 05:40:43;;;;;;;;;;;;;;;;;;5073795;28;1266;-70
2023/03/13 05:43:09;;;;;;;;;;;;;;;;;;5091114;28;919;-70
2023/03/13 05:45:34;;;;;;;;;;;;;;;;;;5090990;28;1375;-71
2023/03/13 05:47:59;;;;;;;;;;;;;;;;;;5092399;28;1914;-70
2023/03/13 05:50:24;;;;;;;;;;;;;;;;;;5074086;28;1173;-70
2023/03/13 05:52:50;;;;;;;;;;;;;;;;;;5092381;28;891;-71
2023/03/13 05:55:16;;;;;;;;;;;;;;;;;;5091093;28;1024;-70
2023/03/13 05:57:45;;;;;;;;;;;;;;;;;;5090804;28;1432;-70
2023/03/13 06:00:11;;;;;;;;;;;;;;;;;;5092576;28;840;-69
2023/03/13 06:02:36;;;;;;;;;;;;;;;;;;5091904;28;975;-71
2023/03/13 06:05:02;;;;;;;;;;;;;;;;;;5074272;28;1513;-72
2023/03/13 06:07:27;;;;;;;;;;;;;;;;;;5091851;28;1989;-71
2023/03/13 06:09:52;;;;;;;;;;;;;;;;;;5091194;28;1198;-71
2023/03/13 06:12:18;;;;;;;;;;;;;;;;;;5074836;28;1134;-71
2023/03/13 06:14:43;;;;;;;;;;;;;;;;;;5092218;28;907;-71
2023/03/13 06:17:08;;;;;;;;;;;;;;;;;;5092609;28;860;-71
2023/03/13 06:19:34;;;;;;;;;;;;;;;;;;5094676;28;915;-71
2023/03/13 06:21:59;;;;;;;;;;;;;;;;;;5077905;28;1292;-71
2023/03/13 06:24:24;;;;;;;;;;;;;;;;;;5096607;28;970;-71
2023/03/13 06:26:51;;;;;;;;;;;;;;;;;;5094827;28;1906;-71
2023/03/13 06:29:16;;;;;;;;;;;;;;;;;;5096250;28;872;-71
2023/03/13 06:31:41;;;;;;;;;;;;;;;;;;5095893;28;808;-71
2023/03/13 06:34:07;;;;;;;;;;;;;;;;;;5094274;28;1118;-71
2023/03/13 06:36:32;;;;;;;;;;;;;;;;;;5095666;28;951;-70
2023/03/13 06:38:58;;;;;;;;;;;;;;;;;;5094416;28;1069;-70
2023/03/13 06:41:23;;;;;;;;;;;;;;;;;;5095100;28;876;-70
2023/03/13 06:43:48;;;;;;;;;;;;;;;;;;5094049;28;891;-70
2023/03/13 06:46:18;;;;;;;;;;;;;;;;;;5093977;28;1142;-71
2023/03/13 06:48:43;;;;;;;;;;;;;;;;;;5094559;28;1977;-70
2023/03/13 06:51:13;;;;;;;;;;;;;;;;;;5095024;28;789;-70
2023/03/13 06:53:39;;;;;;;;;;;;;;;;;;5094915;28;869;-70
2023/03/13 06:56:04;;;;;;;;;;;;;;;;;;5076858;28;1266;-70
2023/03/13 06:58:29;;;;;;;;;;;;;;;;;;5094869;28;844;-70
2023/03/13 07:00:55;;;;;;;;;;;;;;;;;;5093284;28;1127;-70
2023/03/13 07:03:20;;;;;;;;;;;;;;;;;;5093750;28;1112;-70
2023/03/13 07:05:45;;;;;;;;;;;;;;;;;;5094429;28;848;-70
2023/03/13 07:08:10;;;;;;;;;;;;;;;;;;5094847;28;1963;-70
2023/03/13 07:10:36;;;;;;;;;;;;;;;;;;5093856;28;1115;-71
2023/03/13 07:13:01;;;;;;;;;;;;;;;;;;5093185;28;1182;-71
2023/03/13 07:15:27;;;;;;;;;;;;;;;;;;5075832;28;1158;-71
2023/03/13 07:17:52;;;;;;;;;;;;;;;;;;5094538;28;895;-71
2023/03/13 07:20:17;;;;;;;;;;;;;;;;;;5092947;28;899;-71
2023/03/13 07:22:43;;;;;;;;;;;;;;;;;;5093925;28;820;-71
2023/03/13 07:25:08;;;;;;;;;;;;;;;;;;5094353;28;1014;-70
2023/03/13 07:27:34;;;;;;;;;;;;;;;;;;5094084;28;1902;-71
2023/03/13 07:29:59;;;;;;;;;;;;;;;;;;5093478;28;879;-71
2023/03/13 07:32:24;;;;;;;;;;;;;;;;;;5093871;28;991;-71
2023/03/13 07:34:49;;;;;;;;;;;;;;;;;;5093969;28;844;-70
2023/03/13 07:37:15;;;;;;;;;;;;;;;;;;5093151;28;1245;-71
2023/03/13 07:39:41;;;;;;;;;;;;;;;;;;5092555;28;1155;-71
2023/03/13 07:42:07;;;;;;;;;;;;;;;;;;5092960;28;1162;-71
2023/03/13 07:44:33;;;;;;;;;;;;;;;;;;5094290;28;904;-71
2023/03/13 07:46:58;;;;;;;;;;;;;;;;;;5092561;28;1894;-71
2023/03/13 07:49:24;;;;;;;;;;;;;;;;;;5094042;28;828;-71
2023/03/13 07:51:49;;;;;;;;;;;;;;;;;;5094051;28;848;-71
2023/03/13 07:54:15;;;;;;;;;;;;;;;;;;5094193;28;852;-70
2023/03/13 07:56:40;;;;;;;;;;;;;;;;;;5092539;28;1106;-71
2023/03/13 07:59:05;;;;;;;;;;;;;;;;;;5094125;28;1110;-71
2023/03/13 08:01:31;;;;;;;;;;;;;;;;;;5093697;28;1190;-71
2023/03/13 08:03:57;;;;;;;;;;;;;;;;;;5110620;28;1131;-71
2023/03/13 08:06:24;;;;;;;;;;;;;;;;;;5106800;28;1905;-70
2023/03/13 08:08:49;;;;;;;;;;;;;;;;;;5105473;28;1223;-71
2023/03/13 08:11:19;;;;;;;;;;;;;;;;;;5113470;28;777;-71
2023/03/13 08:13:44;;;;;;;;;;;;;;;;;;5112172;28;1200;-71
2023/03/13 08:16:11;;;;;;;;;;;;;;;;;;5094813;28;1427;-70
2023/03/13 08:18:37;;;;;;;;;;;;;;;;;;5113456;28;919;-71
2023/03/13 08:21:04;;;;;;;;;;;;;;;;;;5113772;28;939;-70
2023/03/13 08:23:29;;;;;;;;;;;;;;;;;;5113390;28;999;-71
2023/03/13 08:25:54;;;;;;;;;;;;;;;;;;5113670;28;981;-71
2023/03/13 08:28:19;;;;;;;;;;;;;;;;;;5113570;28;1975;-71
2023/03/13 08:30:45;;;;;;;;;;;;;;;;;;5113387;28;877;-71
2023/03/13 08:33:10;;;;;;;;;;;;;;;;;;5112120;28;1265;-71
2023/03/13 08:35:35;;;;;;;;;;;;;;;;;;5112291;28;1292;-70
2023/03/13 08:38:01;;;;;;;;;;;;;;;;;;5113256;28;879;-71
2023/03/13 08:40:27;;;;;;;;;;;;;;;;;;5111807;28;821;-71
2023/03/13 08:42:52;;;;;;;;;;;;;;;;;;5111887;28;1276;-71
2023/03/13 08:45:18;;;;;;;;;;;;;;;;;;5113184;28;730;-71
2023/03/13 08:47:43;;;;;;;;;;;;;;;;;;5111410;28;1953;-71
2023/03/13 08:50:08;;;;;;;;;;;;;;;;;;5112689;28;966;-71
2023/03/13 08:52:34;;;;;;;;;;;;;;;;;;5111831;28;1212;-71
2023/03/13 08:54:59;;;;;;;;;;;;;;;;;;5112875;28;907;-71
2023/03/13 08:57:24;;;;;;;;;;;;;;;;;;5111715;28;1236;-71
2023/03/13 08:59:50;;;;;;;;;;;;;;;;;;5112744;28;887;-70
2023/03/13 09:02:18;;;;;;;;;;;;;;;;;;5111768;28;907;-71
2023/03/13 09:04:44;;;;;;;;;;;;;;;;;;5113125;28;855;-71
2023/03/13 09:07:09;;;;;;;;;;;;;;;;;;5112251;28;1910;-71
2023/03/13 09:09:34;;;;;;;;;;;;;;;;;;5113077;28;1175;-70
2023/03/13 09:12:00;;;;;;;;;;;;;;;;;;5113623;28;871;-70
2023/03/13 09:14:25;;;;;;;;;;;;;;;;;;5112179;28;1318;-70
2023/03/13 09:16:50;;;;;;;;;;;;;;;;;;5114014;28;793;-70
2023/03/13 09:19:16;;;;;;;;;;;;;;;;;;5113700;28;855;-71
2023/03/13 09:21:41;;;;;;;;;;;;;;;;;;5113358;28;812;-70
2023/03/13 09:24:07;;;;;;;;;;;;;;;;;;5113331;28;840;-68
2023/03/13 09:26:32;;;;;;;;;;;;;;;;;;5113442;28;1909;-67
2023/03/13 09:28:57;;;;;;;;;;;;;;;;;;5113474;28;820;-70
2023/03/13 09:31:22;;;;;;;;;;;;;;;;;;5112480;28;938;-68
2023/03/13 09:33:48;;;;;;;;;;;;;;;;;;5112495;28;801;-69
2023/03/13 09:36:14;;;;;;;;;;;;;;;;;;5112280;28;891;-70
2023/03/13 09:38:40;;;;;;;;;;;;;;;;;;5111105;28;868;-70
2023/03/13 09:41:17;;;;;;;;;;;;;;;;;;5112488;28;852;-69
2023/03/13 09:44:01;;;;;;;;;;;;;;;;;;5112875;28;831;-69
2023/03/13 09:46:44;;;;;;;;;;;;;;;;;;5111989;28;1901;-69
2023/03/13 09:49:21;;;;;;;;;;;;;;;;;;5111746;28;855;-69
2023/03/13 09:51:49;;;;;;;;;;;;;;;;;;5110216;28;1315;-70
2023/03/13 09:54:27;;;;;;;;;;;;;;;;;;5114029;28;1189;-69
2023/03/13 09:56:57;;;;;;;;;;;;;;;;;;5118666;27;816;-69
2023/03/13 09:59:42;;;;;;;;;;;;;;;;;;5117480;28;1219;-69
2023/03/13 10:02:28;;;;;;;;;;;;;;;;;;5118572;28;880;-70
2023/03/13 10:05:17;;;;;;;;;;;;;;;;;;5112437;28;1390;-69
2023/03/13 10:07:42;;;;;;;;;;;;;;;;;;5098366;28;1913;-66
2023/03/13 10:10:19;;;;;;;;;;;;;;;;;;5119137;27;833;-69
2023/03/13 10:12:45;;;;;;;;;;;;;;;;;;5119021;27;899;-69
2023/03/13 10:15:29;;;;;;;;;;;;;;;;;;5119306;27;832;-69
2023/03/13 10:17:56;;;;;;;;;;;;;;;;;;5117641;28;1214;-69
2023/03/13 10:20:22;;;;;;;;;;;;;;;;;;5117238;28;1375;-69
2023/03/13 10:22:51;;;;;;;;;;;;;;;;;;5117612;28;1276;-70
2023/03/13 10:25:25;;;;;;;;;;;;;;;;;;5117180;28;1297;-70
2023/03/13 10:27:52;;;;;;;;;;;;;;;;;;5119039;27;1909;-70
2023/03/13 10:30:23;;;;;;;;;;;;;;;;;;5118510;28;801;-70
2023/03/13 10:32:48;;;;;;;;;;;;;;;;;;5119521;27;852;-71
2023/03/13 10:35:20;;;;;;;;;;;;;;;;;;5119465;27;745;-71
2023/03/13 10:37:45;;;;;;;;;;;;;;;;;;5118551;28;1186;-70
2023/03/13 10:40:22;;;;;;;;;;;;;;;;;;5117731;28;1279;-70
2023/03/13 10:42:47;;;;;;;;;;;;;;;;;;5119076;27;867;-70
2023/03/13 10:45:17;;;;;;;;;;;;;;;;;;5118870;28;840;-70
2023/03/13 10:47:42;;;;;;;;;;;;;;;;;;5116812;28;1921;-69
2023/03/13 10:50:16;;;;;;;;;;;;;;;;;;5118630;27;836;-69
2023/03/13 10:52:44;;;;;;;;;;;;;;;;;;5119095;27;816;-69
2023/03/13 10:55:12;;;;;;;;;;;;;;;;;;5118952;27;824;-71
2023/03/13 10:57:38;;;;;;;;;;;;;;;;;;5119095;27;785;-71
2023/03/13 11:00:22;;;;;;;;;;;;;;;;;;5117997;28;1045;-70
2023/03/13 11:02:47;;;;;;;;;;;;;;;;;;5119238;27;959;-71
2023/03/13 11:05:34;;;;;;;;;;;;;;;;;;5116435;27;1069;-71
2023/03/13 11:08:10;;;;;;;;;;;;;;;;;;5114165;28;1983;-71
2023/03/13 11:10:36;;;;;;;;;;;;;;;;;;5114549;28;879;-71
2023/03/13 11:13:01;;;;;;;;;;;;;;;;;;5114228;28;1241;-71
2023/03/13 11:15:29;;;;;;;;;;;;;;;;;;5115593;28;868;-70
2023/03/13 11:18:01;;;;;;;;;;;;;;;;;;5115560;28;824;-71
2023/03/13 11:20:26;;;;;;;;;;;;;;;;;;5114896;28;986;-71
2023/03/13 11:23:07;;;;;;;;;;;;;;;;;;5114031;28;986;-71
2023/03/13 11:26:00;;;;;;;;;;;;;;;;;;5111510;28;1328;-71
2023/03/13 11:28:25;;;;;;;;;;;;;;;;;;5111031;28;1911;-70
2023/03/13 11:30:56;;;;;;;;;;;;;;;;;;5112711;28;843;-70
2023/03/13 11:33:24;;;;;;;;;;;;;;;;;;5112636;28;824;-71
2023/03/13 11:36:00;;;;;;;;;;;;;;;;;;5112817;28;959;-71
2023/03/13 11:38:29;;;;;;;;;;;;;;;;;;5113894;28;741;-71
2023/03/13 11:41:13;;;;;;;;;;;;;;;;;;5113071;28;1158;-70
2023/03/13 11:43:53;;;;;;;;;;;;;;;;;;5114278;28;821;-71
2023/03/13 11:46:28;;;;;;;;;;;;;;;;;;5113173;28;1300;-70
2023/03/13 11:49:32;;;;;;;;;;;;;;;;;;5112940;28;1964;-71
2023/03/13 11:52:11;;;;;;;;;;;;;;;;;;5070587;28;1175;-70
2023/03/13 11:54:36;;;;;;;;;;;;;;;;;;5054561;28;1175;-70
2023/03/13 11:57:04;;;;;;;;;;;;;;;;;;5095249;27;1121;-70
2023/03/13 11:59:48;;;;;;;;;;;;;;;;;;5112588;28;1288;-70
2023/03/13 12:02:19;;;;;;;;;;;;;;;;;;5105874;28;1178;-70
2023/03/13 12:04:51;;;;;;;;;;;;;;;;;;5102294;28;1316;-70
2023/03/13 12:07:17;;;;;;;;;;;;;;;;;;5113049;28;1961;-70
2023/03/13 12:09:44;;;;;;;;;;;;;;;;;;5112301;28;1327;-70
2023/03/13 12:12:25;;;;;;;;;;;;;;;;;;5107797;28;1146;-70
2023/03/13 12:14:53;;;;;;;;;;;;;;;;;;5091950;28;1436;-70
2023/03/13 12:17:18;;;;;;;;;;;;;;;;;;5093105;28;883;-70
2023/03/13 12:19:57;;;;;;;;;;;;;;;;;;5093159;28;856;-70
2023/03/13 12:22:35;;;;;;;;;;;;;;;;;;5092801;28;801;-69
2023/03/13 12:25:04;;;;;;;;;;;;;;;;;;5091910;28;1193;-69
2023/03/13 12:27:39;;;;;;;;;;;;;;;;;;5091948;28;1914;-70
2023/03/13 12:30:25;;;;;;;;;;;;;;;;;;5092411;28;1455;-70
2023/03/13 12:33:09;;;;;;;;;;;;;;;;;;5092450;28;1157;-70
2023/03/13 12:35:35;;;;;;;;;;;;;;;;;;5092591;28;1276;-70
2023/03/13 12:38:19;;;;;;;;;;;;;;;;;;5093494;28;836;-70
2023/03/13 12:41:11;;;;;;;;;;;;;;;;;;5093199;28;946;-70
2023/03/13 12:43:38;;;;;;;;;;;;;;;;;;5088957;28;1355;-69
2023/03/13 12:46:26;;;;;;;;;;;;;;;;;;5093666;28;796;-70
2023/03/13 12:49:01;;;;;;;;;;;;;;;;;;5092958;28;1930;-70
2023/03/13 12:51:53;;;;;;;;;;;;;;;;;;5092363;28;971;-70
2023/03/13 12:54:36;;;;;;;;;;;;;;;;;;5091133;28;1469;-70
2023/03/13 12:57:01;;;;;;;;;;;;;;;;;;5091438;28;1154;-70
2023/03/13 12:59:32;;;;;;;;;;;;;;;;;;5091133;28;1258;-70
2023/03/13 13:01:57;;;;;;;;;;;;;;;;;;5092340;28;841;-70
2023/03/13 13:04:25;;;;;;;;;;;;;;;;;;5091321;28;1277;-69
2023/03/13 13:06:56;;;;;;;;;;;;;;;;;;5092694;28;1961;-70
2023/03/13 13:09:23;;;;;;;;;;;;;;;;;;5091734;28;1072;-70
2023/03/13 13:11:49;;;;;;;;;;;;;;;;;;5092161;28;1226;-70
2023/03/13 13:14:14;;;;;;;;;;;;;;;;;;5101187;28;1203;-69
2023/03/13 13:16:45;;;;;;;;;;;;;;;;;;5104646;28;1281;-70
2023/03/13 13:19:39;;;;;;;;;;;;;;;;;;5096494;28;1163;-70
2023/03/13 13:22:23;;;;;;;;;;;;;;;;;;5077773;28;1281;-69
2023/03/13 13:24:52;;;;;;;;;;;;;;;;;;5091779;28;908;-70
2023/03/13 13:27:35;;;;;;;;;;;;;;;;;;5092033;28;1974;-67
2023/03/13 13:30:23;;;;;;;;;;;;;;;;;;5091681;28;849;-70
2023/03/13 13:32:49;;;;;;;;;;;;;;;;;;5091860;28;996;-69
2023/03/13 13:35:18;;;;;;;;;;;;;;;;;;5092021;28;879;-69
2023/03/13 13:37:43;;;;;;;;;;;;;;;;;;5092055;28;832;-70
2023/03/13 13:40:16;;;;;;;;;;;;;;;;;;5092080;28;943;-70
2023/03/13 13:42:48;;;;;;;;;;;;;;;;;;5090306;28;1222;-70
2023/03/13 13:45:13;;;;;;;;;;;;;;;;;;5091726;28;991;-70
2023/03/13 13:47:39;;;;;;;;;;;;;;;;;;5091856;28;1888;-71
2023/03/13 13:50:16;;;;;;;;;;;;;;;;;;5092567;28;927;-68
2023/03/13 13:52:42;;;;;;;;;;;;;;;;;;5090711;28;1445;-68
2023/03/13 13:55:26;;;;;;;;;;;;;;;;;;5092373;28;1045;-68
2023/03/13 13:57:59;;;;;;;;;;;;;;;;;;5092596;28;907;-68
2023/03/13 14:00:25;;;;;;;;;;;;;;;;;;5092390;28;880;-69
2023/03/13 14:02:52;;;;;;;;;;;;;;;;;;5092180;28;837;-68
2023/03/13 14:05:21;;;;;;;;;;;;;;;;;;5090430;28;1186;-69
2023/03/13 14:07:56;;;;;;;;;;;;;;;;;;5091660;28;1914;-68
2023/03/13 14:10:35;;;;;;;;;;;;;;;;;;5092379;28;930;-69
2023/03/13 14:13:01;;;;;;;;;;;;;;;;;;5090679;28;1209;-69
2023/03/13 14:15:31;;;;;;;;;;;;;;;;;;5090514;28;1316;-69
2023/03/13 14:18:08;;;;;;;;;;;;;;;;;;5089957;28;1443;-69
2023/03/13 14:20:35;;;;;;;;;;;;;;;;;;5091056;28;947;-69
2023/03/13 14:23:05;;;;;;;;;;;;;;;;;;5090321;28;1170;-69
2023/03/13 14:25:50;;;;;;;;;;;;;;;;;;5091685;28;892;-69
2023/03/13 14:28:17;;;;;;;;;;;;;;;;;;5091073;28;1913;-69
2023/03/13 14:30:43;;;;;;;;;;;;;;;;;;5090044;28;1352;-69
2023/03/13 14:33:08;;;;;;;;;;;;;;;;;;5090537;28;1142;-69
2023/03/13 14:35:33;;;;;;;;;;;;;;;;;;5091195;28;876;-69
2023/03/13 14:38:02;;;;;;;;;;;;;;;;;;5091569;28;1010;-69
2023/03/13 14:40:28;;;;;;;;;;;;;;;;;;5092083;28;1109;-70
2023/03/13 14:42:58;;;;;;;;;;;;;;;;;;5094947;28;901;-69
2023/03/13 14:45:29;;;;;;;;;;;;;;;;;;5093522;28;1332;-69
2023/03/13 14:47:55;;;;;;;;;;;;;;;;;;5094978;28;1914;-69
2023/03/13 14:50:23;;;;;;;;;;;;;;;;;;5095226;28;903;-69
2023/03/13 14:52:49;;;;;;;;;;;;;;;;;;5093519;28;1205;-69
2023/03/13 14:55:20;;;;;;;;;;;;;;;;;;5095202;28;813;-69
2023/03/13 14:58:23;;;;;;;;;;;;;;;;;;5094257;28;804;-69
2023/03/13 15:00:48;;;;;;;;;;;;;;;;;;5093524;28;1217;-69
2023/03/13 15:03:15;;;;;;;;;;;;;;;;;;5095144;28;1023;-69
2023/03/13 15:05:41;;;;;;;;;;;;;;;;;;5094844;28;868;-70
2023/03/13 15:08:14;;;;;;;;;;;;;;;;;;5094603;28;1913;-71
2023/03/13 15:10:40;;;;;;;;;;;;;;;;;;5094301;28;951;-70
2023/03/13 15:13:28;;;;;;;;;;;;;;;;;;5094675;28;852;-70
2023/03/13 15:15:53;;;;;;;;;;;;;;;;;;5094832;28;836;-70
2023/03/13 15:18:18;;;;;;;;;;;;;;;;;;5093893;28;1254;-70
2023/03/13 15:20:47;;;;;;;;;;;;;;;;;;5093328;28;1335;-70
2023/03/13 15:23:14;;;;;;;;;;;;;;;;;;5094959;28;852;-70
2023/03/13 15:25:39;;;;;;;;;;;;;;;;;;5093484;28;1321;-70
2023/03/13 15:28:13;;;;;;;;;;;;;;;;;;5093940;28;1907;-70
2023/03/13 15:30:38;;;;;;;;;;;;;;;;;;5094285;28;805;-70
2023/03/13 15:33:03;;;;;;;;;;;;;;;;;;5094948;28;948;-70
2023/03/13 15:35:30;;;;;;;;;;;;;;;;;;5094516;28;816;-70
2023/03/13 15:37:56;;;;;;;;;;;;;;;;;;5094716;28;801;-70
2023/03/13 15:40:23;;;;;;;;;;;;;;;;;;5094815;28;908;-70
2023/03/13 15:42:48;;;;;;;;;;;;;;;;;;5093930;28;872;-70
2023/03/13 15:45:13;;;;;;;;;;;;;;;;;;5092770;28;1292;-70
2023/03/13 15:47:39;;;;;;;;;;;;;;;;;;5092035;28;1959;-70
2023/03/13 15:50:09;;;;;;;;;;;;;;;;;;5075897;28;1165;-70
2023/03/13 15:52:34;;;;;;;;;;;;;;;;;;5091234;28;1277;-70
2023/03/13 15:55:00;;;;;;;;;;;;;;;;;;5092082;28;1146;-70
2023/03/13 15:57:25;;;;;;;;;;;;;;;;;;5093676;28;789;-70
2023/03/13 15:59:51;;;;;;;;;;;;;;;;;;5093340;28;857;-69
2023/03/13 16:02:20;;;;;;;;;;;;;;;;;;5093510;28;896;-70
2023/03/13 16:04:46;;;;;;;;;;;;;;;;;;5093649;28;900;-71
2023/03/13 16:07:12;;;;;;;;;;;;;;;;;;5074783;28;1981;-71
2023/03/13 16:09:38;;;;;;;;;;;;;;;;;;5089950;28;1262;-70
2023/03/13 16:12:04;;;;;;;;;;;;;;;;;;5091825;28;939;-71
2023/03/13 16:14:30;;;;;;;;;;;;;;;;;;5090657;28;1292;-71
2023/03/13 16:16:55;;;;;;;;;;;;;;;;;;5089869;28;1225;-71
2023/03/13 16:19:21;;;;;;;;;;;;;;;;;;5073369;28;1353;-71
2023/03/13 16:21:47;;;;;;;;;;;;;;;;;;5090450;28;765;-71
2023/03/13 16:24:19;;;;;;;;;;;;;;;;;;5090910;28;837;-71
2023/03/13 16:26:44;;;;;;;;;;;;;;;;;;5093568;28;1913;-70
2023/03/13 16:29:14;;;;;;;;;;;;;;;;;;5093222;28;882;-70
2023/03/13 16:31:40;;;;;;;;;;;;;;;;;;5091547;28;1196;-70
2023/03/13 16:34:06;;;;;;;;;;;;;;;;;;5093665;28;878;-70
2023/03/13 16:36:32;;;;;;;;;;;;;;;;;;5091961;28;1300;-70
2023/03/13 16:38:58;;;;;;;;;;;;;;;;;;5074545;28;1226;-70
2023/03/13 16:41:26;;;;;;;;;;;;;;;;;;5093080;28;859;-70
2023/03/13 16:43:52;;;;;;;;;;;;;;;;;;5092509;28;809;-70
2023/03/13 16:46:18;;;;;;;;;;;;;;;;;;5091837;28;1252;-70
2023/03/13 16:48:44;;;;;;;;;;;;;;;;;;5092696;28;1906;-70
2023/03/13 16:51:16;;;;;;;;;;;;;;;;;;5093642;28;797;-70
2023/03/13 16:53:41;;;;;;;;;;;;;;;;;;5091484;28;1186;-70
2023/03/13 16:56:27;;;;;;;;;;;;;;;;;;5093511;28;872;-70
2023/03/13 16:58:53;;;;;;;;;;;;;;;;;;5092656;28;1173;-70
2023/03/13 17:01:18;;;;;;;;;;;;;;;;;;5093800;28;887;-70
2023/03/13 17:03:44;;;;;;;;;;;;;;;;;;5092347;28;816;-70
2023/03/13 17:06:13;;;;;;;;;;;;;;;;;;5092243;28;1221;-70
2023/03/13 17:08:39;;;;;;;;;;;;;;;;;;5092670;28;1940;-70
2023/03/13 17:11:04;;;;;;;;;;;;;;;;;;5093201;28;860;-70
2023/03/13 17:13:30;;;;;;;;;;;;;;;;;;5093218;28;832;-71
2023/03/13 17:15:55;;;;;;;;;;;;;;;;;;5091388;28;1257;-71
2023/03/13 17:18:20;;;;;;;;;;;;;;;;;;5092481;28;964;-71
2023/03/13 17:20:47;;;;;;;;;;;;;;;;;;5091011;28;995;-71